FIN1661 EFHK-LEMD
Flight info
| Callsign | FIN1661 |
|---|---|
| Flight time | N/A |
| Altitude | 32000 |
| Route | NUNTO Y369 REKDO DCT KOSKA DCT ROXEN DCT ALASA/N0445F340 DCT SUSET DCT CIV/N0443F330 N872 MEDIL DCT KOVIN DCT DUCRA UM728 RESMI UN857 DISAK/N0448F350 DCT ARKIP DCT ARNAV DCT LMG DCT UVELI DCT OSMOB DCT ARVID T424 PPN N857 BANEV |
| Aircraft | A321/M-SDE3FGHIRWY/LB1 |
Departure
| Time | N/A |
|---|---|
| Airport | Helsinki Vantaa Airport (EFHK) |
Arrival
| Time | 2026-05-06 13:19 |
|---|---|
| Airport | Adolfo Suárez Madrid–Barajas Airport (LEMD) |
| Time | Latitude | Longitude | Altitude | Speed | Heading |
|---|---|---|---|---|---|
| 2026-05-06 11:16 | 52.51870 | 5.77734 | 33893 ft | 432 kts | 224° |
| 2026-05-06 11:17 | 52.47665 | 5.70694 | 33912 ft | 432 kts | 224° |
| 2026-05-06 11:17 | 52.43439 | 5.63651 | 33888 ft | 437 kts | 224° |
| 2026-05-06 11:18 | 52.39138 | 5.56467 | 33883 ft | 446 kts | 224° |
| 2026-05-06 11:18 | 52.34753 | 5.49174 | 33890 ft | 450 kts | 224° |
| 2026-05-06 11:19 | 52.30347 | 5.41875 | 33889 ft | 451 kts | 224° |
| 2026-05-06 11:19 | 52.25998 | 5.34708 | 33890 ft | 449 kts | 225° |
| 2026-05-06 11:20 | 52.21537 | 5.27373 | 33902 ft | 450 kts | 224° |
| 2026-05-06 11:20 | 52.17123 | 5.20120 | 33904 ft | 451 kts | 224° |
| 2026-05-06 11:21 | 52.12530 | 5.13193 | 33872 ft | 450 kts | 214° |
| 2026-05-06 11:21 | 52.07127 | 5.08195 | 33887 ft | 450 kts | 207° |
| 2026-05-06 11:22 | 52.01593 | 5.03427 | 33890 ft | 451 kts | 207° |
| 2026-05-06 11:22 | 51.96061 | 4.98640 | 33881 ft | 451 kts | 207° |
| 2026-05-06 11:23 | 51.90530 | 4.93867 | 33886 ft | 452 kts | 207° |
| 2026-05-06 11:23 | 51.84968 | 4.89103 | 33878 ft | 453 kts | 207° |
| 2026-05-06 11:24 | 51.79393 | 4.84339 | 33899 ft | 454 kts | 207° |
| 2026-05-06 11:24 | 51.73795 | 4.79569 | 33891 ft | 454 kts | 207° |
| 2026-05-06 11:25 | 51.68202 | 4.74824 | 33879 ft | 454 kts | 207° |
| 2026-05-06 11:25 | 51.62658 | 4.70122 | 33867 ft | 455 kts | 207° |
| 2026-05-06 11:26 | 51.57055 | 4.65386 | 33902 ft | 455 kts | 207° |
| 2026-05-06 11:26 | 51.51473 | 4.60692 | 33893 ft | 455 kts | 207° |
| 2026-05-06 11:27 | 51.45858 | 4.55970 | 33907 ft | 455 kts | 207° |
| 2026-05-06 11:27 | 51.40246 | 4.51258 | 33910 ft | 456 kts | 207° |
| 2026-05-06 11:28 | 51.34625 | 4.46556 | 33907 ft | 456 kts | 207° |
| 2026-05-06 11:28 | 51.28990 | 4.41856 | 33911 ft | 456 kts | 207° |
| 2026-05-06 11:29 | 51.23382 | 4.37187 | 33907 ft | 457 kts | 206° |
| 2026-05-06 11:29 | 51.17743 | 4.32507 | 33908 ft | 457 kts | 207° |
| 2026-05-06 11:30 | 51.12103 | 4.27861 | 33904 ft | 457 kts | 207° |
| 2026-05-06 11:30 | 51.06491 | 4.23232 | 33908 ft | 456 kts | 206° |
| 2026-05-06 11:31 | 51.00853 | 4.18594 | 33914 ft | 456 kts | 207° |
| 2026-05-06 11:31 | 50.95214 | 4.13970 | 33917 ft | 456 kts | 206° |
| 2026-05-06 11:32 | 50.89569 | 4.09356 | 33917 ft | 456 kts | 206° |
| 2026-05-06 11:32 | 50.83920 | 4.04752 | 33916 ft | 456 kts | 206° |
| 2026-05-06 11:33 | 50.78281 | 4.00164 | 33913 ft | 456 kts | 207° |
| 2026-05-06 11:33 | 50.72634 | 3.95574 | 33914 ft | 456 kts | 206° |
| 2026-05-06 11:34 | 50.66993 | 3.91014 | 33912 ft | 456 kts | 207° |
| 2026-05-06 11:34 | 50.61350 | 3.86455 | 33919 ft | 456 kts | 206° |
| 2026-05-06 11:35 | 50.55679 | 3.81960 | 33912 ft | 455 kts | 204° |
| 2026-05-06 11:35 | 50.49890 | 3.77944 | 33911 ft | 455 kts | 202° |
| 2026-05-06 11:36 | 50.44051 | 3.74135 | 33909 ft | 454 kts | 202° |
| 2026-05-06 11:36 | 50.38232 | 3.70258 | 33905 ft | 454 kts | 203° |
| 2026-05-06 11:37 | 50.32432 | 3.66312 | 33911 ft | 455 kts | 202° |
| 2026-05-06 11:37 | 50.26627 | 3.62373 | 33908 ft | 455 kts | 202° |
| 2026-05-06 11:38 | 50.20814 | 3.58444 | 33912 ft | 455 kts | 202° |
| 2026-05-06 11:38 | 50.14998 | 3.54541 | 33909 ft | 455 kts | 202° |
| 2026-05-06 11:39 | 50.09178 | 3.50642 | 33915 ft | 455 kts | 203° |
| 2026-05-06 11:39 | 50.03395 | 3.46790 | 33908 ft | 456 kts | 202° |
| 2026-05-06 11:40 | 49.97564 | 3.42898 | 33913 ft | 456 kts | 202° |
| 2026-05-06 11:40 | 49.91733 | 3.39004 | 33912 ft | 456 kts | 202° |
| 2026-05-06 11:41 | 49.85894 | 3.35131 | 33900 ft | 457 kts | 202° |
| 2026-05-06 11:41 | 49.80042 | 3.31269 | 33909 ft | 457 kts | 202° |
| 2026-05-06 11:42 | 49.74185 | 3.27413 | 33909 ft | 457 kts | 202° |
| 2026-05-06 11:42 | 49.68329 | 3.23565 | 33911 ft | 458 kts | 202° |
| 2026-05-06 11:43 | 49.62469 | 3.19708 | 33918 ft | 458 kts | 202° |
| 2026-05-06 11:43 | 49.56601 | 3.15855 | 33910 ft | 458 kts | 202° |
| 2026-05-06 11:44 | 49.47866 | 3.09859 | 33898 ft | 460 kts | 210° |
| 2026-05-06 11:44 | 49.42498 | 3.04460 | 33910 ft | 461 kts | 212° |
| 2026-05-06 11:45 | 49.37148 | 2.99018 | 33916 ft | 462 kts | 213° |
| 2026-05-06 11:45 | 49.31787 | 2.93588 | 33924 ft | 462 kts | 213° |
| 2026-05-06 11:46 | 49.26416 | 2.88170 | 33932 ft | 462 kts | 212° |
| 2026-05-06 11:46 | 49.21038 | 2.82752 | 33927 ft | 463 kts | 212° |
| 2026-05-06 11:47 | 49.15666 | 2.77351 | 33935 ft | 462 kts | 212° |
| 2026-05-06 11:47 | 49.10284 | 2.71958 | 33942 ft | 463 kts | 212° |
| 2026-05-06 11:48 | 49.04917 | 2.66591 | 33950 ft | 462 kts | 213° |
| 2026-05-06 11:48 | 48.99559 | 2.61252 | 33944 ft | 463 kts | 212° |
| 2026-05-06 11:49 | 48.94240 | 2.55958 | 33940 ft | 463 kts | 213° |
| 2026-05-06 11:49 | 48.88801 | 2.50563 | 33941 ft | 464 kts | 212° |
| 2026-05-06 11:50 | 48.83426 | 2.45251 | 33940 ft | 464 kts | 212° |
| 2026-05-06 11:50 | 48.78006 | 2.39911 | 33936 ft | 464 kts | 212° |
| 2026-05-06 11:51 | 48.72585 | 2.34579 | 33941 ft | 464 kts | 212° |
| 2026-05-06 11:51 | 48.67167 | 2.29262 | 33946 ft | 464 kts | 212° |
| 2026-05-06 11:52 | 48.61739 | 2.23959 | 33936 ft | 464 kts | 212° |
| 2026-05-06 11:52 | 48.56115 | 2.19269 | 33925 ft | 463 kts | 199° |
| 2026-05-06 11:53 | 48.49887 | 2.16922 | 33934 ft | 463 kts | 191° |
| 2026-05-06 11:53 | 48.43582 | 2.14906 | 33932 ft | 463 kts | 191° |
| 2026-05-06 11:54 | 48.37284 | 2.12877 | 33926 ft | 463 kts | 191° |
| 2026-05-06 11:54 | 48.30975 | 2.10874 | 33925 ft | 464 kts | 188° |
| 2026-05-06 11:55 | 48.25597 | 2.10596 | 33934 ft | 462 kts | 173° |
| 2026-05-06 11:55 | 48.19271 | 2.11927 | 33939 ft | 463 kts | 171° |
| 2026-05-06 11:56 | 48.11774 | 2.12831 | 33933 ft | 465 kts | 184° |
| 2026-05-06 11:56 | 48.06392 | 2.11821 | 33941 ft | 466 kts | 187° |
| 2026-05-06 11:57 | 47.99960 | 2.10567 | 33950 ft | 466 kts | 187° |
| 2026-05-06 11:57 | 47.93518 | 2.09349 | 33954 ft | 467 kts | 187° |
| 2026-05-06 11:58 | 47.87069 | 2.08141 | 33958 ft | 467 kts | 186° |
| 2026-05-06 11:58 | 47.80616 | 2.06915 | 33949 ft | 467 kts | 187° |
| 2026-05-06 11:59 | 47.74164 | 2.05677 | 33941 ft | 467 kts | 187° |
| 2026-05-06 11:59 | 47.67757 | 2.04461 | 33942 ft | 468 kts | 187° |
| 2026-05-06 12:00 | 47.61401 | 2.02513 | 33941 ft | 468 kts | 200° |
| 2026-05-06 12:00 | 47.55342 | 1.99005 | 33942 ft | 468 kts | 201° |
| 2026-05-06 12:01 | 47.49281 | 1.95480 | 33941 ft | 468 kts | 201° |
| 2026-05-06 12:01 | 47.43219 | 1.91973 | 33944 ft | 468 kts | 201° |
| 2026-05-06 12:02 | 47.37151 | 1.88468 | 33943 ft | 468 kts | 201° |
| 2026-05-06 12:02 | 47.31080 | 1.84985 | 33930 ft | 468 kts | 201° |
| 2026-05-06 12:03 | 47.25007 | 1.81508 | 33944 ft | 468 kts | 201° |
| 2026-05-06 12:03 | 47.18925 | 1.78036 | 33933 ft | 469 kts | 201° |
| 2026-05-06 12:04 | 47.12843 | 1.74597 | 33943 ft | 469 kts | 201° |
| 2026-05-06 12:04 | 47.06748 | 1.71175 | 33948 ft | 469 kts | 201° |
| 2026-05-06 12:05 | 47.00655 | 1.67764 | 33946 ft | 469 kts | 201° |
| 2026-05-06 12:05 | 46.94563 | 1.64352 | 33944 ft | 469 kts | 201° |
| 2026-05-06 12:06 | 46.88473 | 1.60943 | 33930 ft | 469 kts | 201° |
| 2026-05-06 12:06 | 46.82372 | 1.57544 | 33944 ft | 470 kts | 201° |
| 2026-05-06 12:07 | 46.76258 | 1.54145 | 33946 ft | 470 kts | 201° |
| 2026-05-06 12:07 | 46.70146 | 1.50754 | 33948 ft | 470 kts | 201° |
| 2026-05-06 12:08 | 46.64025 | 1.47366 | 33951 ft | 471 kts | 201° |
| 2026-05-06 12:08 | 46.57905 | 1.43979 | 33950 ft | 471 kts | 201° |
| 2026-05-06 12:09 | 46.51782 | 1.40611 | 33953 ft | 470 kts | 201° |
| 2026-05-06 12:09 | 46.45667 | 1.37261 | 33947 ft | 470 kts | 201° |
| 2026-05-06 12:10 | 46.39534 | 1.33901 | 33953 ft | 470 kts | 201° |
| 2026-05-06 12:10 | 46.33411 | 1.30553 | 33948 ft | 470 kts | 201° |
| 2026-05-06 12:11 | 46.27329 | 1.27241 | 33944 ft | 470 kts | 201° |
| 2026-05-06 12:11 | 46.21169 | 1.23890 | 33939 ft | 470 kts | 201° |
| 2026-05-06 12:12 | 46.15079 | 1.20586 | 33940 ft | 470 kts | 201° |
| 2026-05-06 12:12 | 46.08955 | 1.17273 | 33937 ft | 470 kts | 201° |
| 2026-05-06 12:13 | 46.02826 | 1.13962 | 33942 ft | 471 kts | 201° |
| 2026-05-06 12:13 | 45.96700 | 1.10654 | 33944 ft | 471 kts | 201° |
| 2026-05-06 12:14 | 45.90570 | 1.07349 | 33949 ft | 470 kts | 201° |
| 2026-05-06 12:14 | 45.84453 | 1.04070 | 33946 ft | 469 kts | 202° |
| 2026-05-06 12:15 | 45.78887 | 0.99336 | 33940 ft | 465 kts | 220° |
| 2026-05-06 12:15 | 45.73937 | 0.93374 | 33937 ft | 465 kts | 221° |
| 2026-05-06 12:16 | 45.68983 | 0.87436 | 33939 ft | 464 kts | 221° |
| 2026-05-06 12:16 | 45.64020 | 0.81528 | 33940 ft | 464 kts | 221° |
| 2026-05-06 12:17 | 45.59063 | 0.75630 | 33933 ft | 464 kts | 221° |
| 2026-05-06 12:17 | 45.54098 | 0.69724 | 33925 ft | 465 kts | 221° |
| 2026-05-06 12:18 | 45.49158 | 0.63876 | 33931 ft | 465 kts | 221° |
| 2026-05-06 12:18 | 45.44174 | 0.57997 | 33927 ft | 465 kts | 220° |
| 2026-05-06 12:19 | 45.39189 | 0.52118 | 33931 ft | 465 kts | 221° |
| 2026-05-06 12:19 | 45.34204 | 0.46254 | 33929 ft | 465 kts | 221° |
| 2026-05-06 12:20 | 45.29213 | 0.40406 | 33934 ft | 465 kts | 220° |
| 2026-05-06 12:20 | 45.24219 | 0.34563 | 33924 ft | 465 kts | 221° |
| 2026-05-06 12:21 | 45.19225 | 0.28725 | 33925 ft | 465 kts | 221° |
| 2026-05-06 12:21 | 45.14229 | 0.22898 | 33935 ft | 465 kts | 221° |
| 2026-05-06 12:22 | 45.09230 | 0.17090 | 33936 ft | 465 kts | 221° |
| 2026-05-06 12:22 | 45.04230 | 0.11299 | 33940 ft | 465 kts | 221° |
| 2026-05-06 12:23 | 44.99234 | 0.05513 | 33941 ft | 464 kts | 221° |
| 2026-05-06 12:23 | 44.94239 | -0.00253 | 33947 ft | 463 kts | 221° |
| 2026-05-06 12:24 | 44.89276 | -0.05961 | 33949 ft | 463 kts | 221° |
| 2026-05-06 12:24 | 44.84278 | -0.11682 | 33952 ft | 463 kts | 221° |
| 2026-05-06 12:25 | 44.79280 | -0.17403 | 33956 ft | 463 kts | 221° |
| 2026-05-06 12:25 | 44.74283 | -0.23128 | 33956 ft | 463 kts | 221° |
| 2026-05-06 12:26 | 44.69289 | -0.28827 | 33952 ft | 463 kts | 221° |
| 2026-05-06 12:26 | 44.64174 | -0.34325 | 33956 ft | 465 kts | 212° |
| 2026-05-06 12:27 | 44.58519 | -0.38573 | 33959 ft | 465 kts | 210° |
| 2026-05-06 12:27 | 44.52769 | -0.42783 | 33965 ft | 465 kts | 210° |
| 2026-05-06 12:28 | 44.47034 | -0.46975 | 33972 ft | 465 kts | 210° |
| 2026-05-06 12:28 | 44.41299 | -0.51175 | 33962 ft | 465 kts | 210° |
| 2026-05-06 12:29 | 44.35569 | -0.55365 | 33974 ft | 464 kts | 210° |
| 2026-05-06 12:29 | 44.29840 | -0.59536 | 33973 ft | 464 kts | 210° |
| 2026-05-06 12:30 | 44.24108 | -0.63698 | 33987 ft | 464 kts | 210° |
| 2026-05-06 12:30 | 44.18390 | -0.67856 | 33986 ft | 463 kts | 210° |
| 2026-05-06 12:31 | 44.12667 | -0.72010 | 33992 ft | 463 kts | 210° |
| 2026-05-06 12:31 | 44.06945 | -0.76130 | 33987 ft | 463 kts | 210° |
| 2026-05-06 12:32 | 44.01263 | -0.80215 | 33971 ft | 463 kts | 210° |
| 2026-05-06 12:32 | 43.95539 | -0.84339 | 33978 ft | 463 kts | 210° |
| 2026-05-06 12:33 | 43.89818 | -0.88449 | 34008 ft | 464 kts | 210° |
| 2026-05-06 12:33 | 43.84085 | -0.92557 | 34000 ft | 464 kts | 210° |
| 2026-05-06 12:34 | 43.78352 | -0.96650 | 34024 ft | 462 kts | 210° |
| 2026-05-06 12:34 | 43.72642 | -1.00723 | 34029 ft | 461 kts | 210° |
| 2026-05-06 12:35 | 43.66934 | -1.04780 | 34025 ft | 461 kts | 210° |
| 2026-05-06 12:35 | 43.61237 | -1.08822 | 34016 ft | 460 kts | 210° |
| 2026-05-06 12:36 | 43.55552 | -1.12854 | 34033 ft | 459 kts | 210° |
| 2026-05-06 12:36 | 43.49877 | -1.16869 | 34037 ft | 459 kts | 210° |
| 2026-05-06 12:37 | 43.44191 | -1.20882 | 34044 ft | 459 kts | 210° |
| 2026-05-06 12:37 | 43.38508 | -1.24878 | 34038 ft | 458 kts | 210° |
| 2026-05-06 12:38 | 43.32830 | -1.28870 | 34047 ft | 458 kts | 210° |
| 2026-05-06 12:38 | 43.27154 | -1.32850 | 34044 ft | 458 kts | 210° |
| 2026-05-06 12:39 | 43.21476 | -1.36810 | 34031 ft | 458 kts | 210° |
| 2026-05-06 12:39 | 43.15839 | -1.40751 | 34052 ft | 457 kts | 210° |
| 2026-05-06 12:40 | 43.10134 | -1.44727 | 34054 ft | 457 kts | 210° |
| 2026-05-06 12:40 | 43.04465 | -1.48661 | 34048 ft | 457 kts | 210° |
| 2026-05-06 12:41 | 42.98845 | -1.52576 | 34032 ft | 455 kts | 210° |
| 2026-05-06 12:41 | 42.93201 | -1.56506 | 34051 ft | 455 kts | 210° |
| 2026-05-06 12:42 | 42.87555 | -1.60421 | 34051 ft | 455 kts | 210° |
| 2026-05-06 12:42 | 42.82858 | -1.63669 | 34050 ft | 455 kts | 210° |
| 2026-05-06 12:43 | 42.77216 | -1.67557 | 34050 ft | 455 kts | 210° |
| 2026-05-06 12:43 | 42.71569 | -1.71438 | 34050 ft | 455 kts | 210° |
| 2026-05-06 12:44 | 42.65863 | -1.75292 | 34048 ft | 455 kts | 210° |
| 2026-05-06 12:44 | 42.60219 | -1.79067 | 34044 ft | 455 kts | 210° |
| 2026-05-06 12:45 | 42.54555 | -1.82853 | 34042 ft | 453 kts | 210° |
| 2026-05-06 12:46 | 42.46143 | -1.88483 | 34031 ft | 451 kts | 210° |
| 2026-05-06 12:46 | 42.40509 | -1.92246 | 34018 ft | 451 kts | 210° |
| 2026-05-06 12:47 | 42.34918 | -1.95973 | 34006 ft | 450 kts | 210° |
| 2026-05-06 12:47 | 42.29302 | -1.99708 | 34016 ft | 449 kts | 210° |
| 2026-05-06 12:48 | 42.23698 | -2.03434 | 34014 ft | 449 kts | 210° |
| 2026-05-06 12:48 | 42.18110 | -2.07130 | 33985 ft | 441 kts | 210° |
| 2026-05-06 12:48 | 42.15396 | -2.08909 | 33982 ft | 428 kts | 211° |
| 2026-05-06 12:49 | 42.12730 | -2.10659 | 33987 ft | 424 kts | 211° |
| 2026-05-06 12:49 | 42.07446 | -2.14145 | 33981 ft | 423 kts | 211° |
| 2026-05-06 12:50 | 42.02168 | -2.17621 | 33984 ft | 422 kts | 211° |
| 2026-05-06 12:50 | 41.96889 | -2.21096 | 33976 ft | 422 kts | 211° |
| 2026-05-06 12:51 | 41.91638 | -2.24542 | 33987 ft | 421 kts | 211° |
| 2026-05-06 12:51 | 41.86366 | -2.27988 | 33884 ft | 419 kts | 211° |
| 2026-05-06 12:51 | 41.83769 | -2.29683 | 33599 ft | 411 kts | 211° |
| 2026-05-06 12:52 | 41.81223 | -2.31344 | 33322 ft | 405 kts | 211° |
| 2026-05-06 12:52 | 41.78696 | -2.32994 | 33052 ft | 402 kts | 211° |
| 2026-05-06 12:52 | 41.76189 | -2.34633 | 32781 ft | 400 kts | 211° |
| 2026-05-06 12:52 | 41.73696 | -2.36262 | 32498 ft | 398 kts | 211° |
| 2026-05-06 12:53 | 41.71215 | -2.37876 | 32230 ft | 395 kts | 211° |
| 2026-05-06 12:53 | 41.68746 | -2.39482 | 31962 ft | 393 kts | 211° |
| 2026-05-06 12:53 | 41.66290 | -2.41080 | 31729 ft | 392 kts | 211° |
| 2026-05-06 12:53 | 41.63840 | -2.42674 | 31464 ft | 391 kts | 211° |
| 2026-05-06 12:54 | 41.61401 | -2.44256 | 31206 ft | 389 kts | 211° |
| 2026-05-06 12:54 | 41.58970 | -2.45829 | 30956 ft | 388 kts | 211° |
| 2026-05-06 12:54 | 41.56543 | -2.47398 | 30710 ft | 387 kts | 211° |
| 2026-05-06 12:54 | 41.54124 | -2.48960 | 30459 ft | 385 kts | 211° |
| 2026-05-06 12:55 | 41.51720 | -2.50512 | 30189 ft | 382 kts | 211° |
| 2026-05-06 12:55 | 41.49343 | -2.52044 | 29769 ft | 378 kts | 211° |
| 2026-05-06 12:55 | 41.46988 | -2.53563 | 29332 ft | 374 kts | 211° |
| 2026-05-06 12:55 | 41.44659 | -2.55063 | 28906 ft | 370 kts | 211° |
| 2026-05-06 12:56 | 41.42351 | -2.56550 | 28504 ft | 367 kts | 211° |
| 2026-05-06 12:56 | 41.40062 | -2.58023 | 28101 ft | 364 kts | 211° |
| 2026-05-06 12:56 | 41.37786 | -2.59485 | 27703 ft | 361 kts | 210° |
| 2026-05-06 12:56 | 41.35531 | -2.60934 | 27310 ft | 359 kts | 210° |
| 2026-05-06 12:57 | 41.33202 | -2.62131 | 26920 ft | 361 kts | 199° |
| 2026-05-06 12:57 | 41.30722 | -2.62698 | 26518 ft | 364 kts | 189° |
| 2026-05-06 12:57 | 41.28179 | -2.62624 | 26130 ft | 366 kts | 182° |
| 2026-05-06 12:57 | 41.25644 | -2.62383 | 25725 ft | 364 kts | 182° |
| 2026-05-06 12:58 | 41.23123 | -2.62146 | 25313 ft | 362 kts | 182° |
| 2026-05-06 12:58 | 41.20651 | -2.61919 | 24913 ft | 360 kts | 182° |
| 2026-05-06 12:58 | 41.18156 | -2.61696 | 24495 ft | 359 kts | 182° |
| 2026-05-06 12:58 | 41.15670 | -2.61479 | 24080 ft | 357 kts | 182° |
| 2026-05-06 12:59 | 41.13192 | -2.61265 | 23658 ft | 357 kts | 182° |
| 2026-05-06 12:59 | 41.10715 | -2.61052 | 23180 ft | 356 kts | 182° |
| 2026-05-06 12:59 | 41.08257 | -2.60836 | 22754 ft | 352 kts | 182° |
| 2026-05-06 12:59 | 41.05823 | -2.60617 | 22326 ft | 349 kts | 181° |
| 2026-05-06 13:00 | 41.03404 | -2.60398 | 21907 ft | 347 kts | 181° |
| 2026-05-06 13:00 | 41.01006 | -2.60184 | 21483 ft | 345 kts | 181° |
| 2026-05-06 13:00 | 40.98617 | -2.59972 | 21060 ft | 343 kts | 180° |
| 2026-05-06 13:00 | 40.96241 | -2.59759 | 20593 ft | 344 kts | 180° |
| 2026-05-06 13:01 | 40.93850 | -2.59550 | 20108 ft | 346 kts | 180° |
| 2026-05-06 13:01 | 40.91453 | -2.59342 | 19615 ft | 346 kts | 179° |
| 2026-05-06 13:01 | 40.89042 | -2.59134 | 19128 ft | 346 kts | 179° |
| 2026-05-06 13:01 | 40.86631 | -2.58949 | 18631 ft | 346 kts | 183° |
| 2026-05-06 13:02 | 40.84268 | -2.59325 | 18137 ft | 342 kts | 197° |
| 2026-05-06 13:02 | 40.82080 | -2.60473 | 17646 ft | 337 kts | 212° |
| 2026-05-06 13:02 | 40.80189 | -2.62281 | 17146 ft | 333 kts | 225° |
| 2026-05-06 13:02 | 40.78568 | -2.64435 | 16693 ft | 331 kts | 227° |
| 2026-05-06 13:03 | 40.76956 | -2.66593 | 16228 ft | 329 kts | 227° |
| 2026-05-06 13:03 | 40.75346 | -2.68740 | 15773 ft | 328 kts | 226° |
| 2026-05-06 13:03 | 40.73742 | -2.70877 | 15310 ft | 328 kts | 226° |
| 2026-05-06 13:03 | 40.72136 | -2.73019 | 14861 ft | 327 kts | 226° |
| 2026-05-06 13:04 | 40.70552 | -2.75129 | 14427 ft | 327 kts | 226° |
| 2026-05-06 13:04 | 40.68947 | -2.77264 | 14206 ft | 318 kts | 225° |
| 2026-05-06 13:04 | 40.67435 | -2.79270 | 14081 ft | 307 kts | 225° |
| 2026-05-06 13:04 | 40.65947 | -2.81228 | 13957 ft | 297 kts | 222° |
| 2026-05-06 13:05 | 40.64293 | -2.82769 | 13834 ft | 287 kts | 212° |
| 2026-05-06 13:05 | 40.62621 | -2.84119 | 13681 ft | 278 kts | 212° |
| 2026-05-06 13:05 | 40.60992 | -2.85429 | 13386 ft | 274 kts | 211° |
| 2026-05-06 13:05 | 40.59375 | -2.86730 | 13028 ft | 270 kts | 212° |
| 2026-05-06 13:06 | 40.57783 | -2.88012 | 12775 ft | 268 kts | 212° |
| 2026-05-06 13:06 | 40.56212 | -2.89278 | 12545 ft | 267 kts | 211° |
| 2026-05-06 13:06 | 40.54633 | -2.90546 | 12313 ft | 266 kts | 212° |
| 2026-05-06 13:06 | 40.53058 | -2.91811 | 12068 ft | 264 kts | 212° |
| 2026-05-06 13:07 | 40.51493 | -2.93067 | 11840 ft | 263 kts | 212° |
| 2026-05-06 13:07 | 40.49943 | -2.94313 | 11608 ft | 260 kts | 212° |
| 2026-05-06 13:07 | 40.48399 | -2.95556 | 11378 ft | 260 kts | 212° |
| 2026-05-06 13:07 | 40.46854 | -2.96798 | 11158 ft | 260 kts | 212° |
| 2026-05-06 13:08 | 40.45316 | -2.98036 | 10913 ft | 259 kts | 212° |
| 2026-05-06 13:08 | 40.43787 | -2.99266 | 10687 ft | 258 kts | 211° |
| 2026-05-06 13:08 | 40.42258 | -3.00491 | 10456 ft | 257 kts | 212° |
| 2026-05-06 13:08 | 40.40737 | -3.01708 | 10228 ft | 256 kts | 211° |
| 2026-05-06 13:09 | 40.39219 | -3.02919 | 9982 ft | 254 kts | 211° |
| 2026-05-06 13:09 | 40.37710 | -3.04123 | 9755 ft | 254 kts | 212° |
| 2026-05-06 13:09 | 40.36207 | -3.05324 | 9516 ft | 253 kts | 212° |
| 2026-05-06 13:09 | 40.34831 | -3.06723 | 9335 ft | 251 kts | 230° |
| 2026-05-06 13:10 | 40.34005 | -3.08681 | 9221 ft | 250 kts | 252° |
| 2026-05-06 13:10 | 40.33483 | -3.10862 | 9104 ft | 251 kts | 253° |
| 2026-05-06 13:10 | 40.32971 | -3.13034 | 8970 ft | 250 kts | 253° |
| 2026-05-06 13:10 | 40.32456 | -3.15212 | 8835 ft | 250 kts | 253° |
| 2026-05-06 13:11 | 40.31941 | -3.17382 | 8592 ft | 249 kts | 253° |
| 2026-05-06 13:11 | 40.31428 | -3.19544 | 8305 ft | 247 kts | 253° |
| 2026-05-06 13:11 | 40.30927 | -3.21651 | 8014 ft | 242 kts | 253° |
| 2026-05-06 13:11 | 40.30434 | -3.23728 | 7755 ft | 234 kts | 253° |
| 2026-05-06 13:12 | 40.29960 | -3.25713 | 7460 ft | 225 kts | 252° |
| 2026-05-06 13:12 | 40.29497 | -3.27646 | 7178 ft | 222 kts | 253° |
| 2026-05-06 13:12 | 40.29037 | -3.29577 | 6918 ft | 221 kts | 253° |
| 2026-05-06 13:12 | 40.28758 | -3.31525 | 6646 ft | 213 kts | 266° |
| 2026-05-06 13:13 | 40.28790 | -3.33414 | 6387 ft | 203 kts | 277° |
| 2026-05-06 13:13 | 40.29081 | -3.35159 | 6169 ft | 196 kts | 288° |
| 2026-05-06 13:13 | 40.29572 | -3.36854 | 6121 ft | 196 kts | 291° |
| 2026-05-06 13:13 | 40.30069 | -3.38493 | 5989 ft | 197 kts | 296° |
| 2026-05-06 13:14 | 40.30934 | -3.39848 | 5746 ft | 195 kts | 322° |
| 2026-05-06 13:14 | 40.32007 | -3.40928 | 5490 ft | 194 kts | 322° |
| 2026-05-06 13:14 | 40.33077 | -3.42002 | 5234 ft | 191 kts | 322° |
| 2026-05-06 13:14 | 40.34089 | -3.43022 | 4992 ft | 185 kts | 322° |
| 2026-05-06 13:15 | 40.35103 | -3.44047 | 4747 ft | 183 kts | 322° |
| 2026-05-06 13:15 | 40.36099 | -3.45052 | 4495 ft | 177 kts | 322° |
| 2026-05-06 13:15 | 40.37054 | -3.46017 | 4271 ft | 168 kts | 322° |
| 2026-05-06 13:15 | 40.37954 | -3.46928 | 4031 ft | 160 kts | 322° |
| 2026-05-06 13:16 | 40.38828 | -3.47811 | 3841 ft | 158 kts | 322° |
| 2026-05-06 13:16 | 40.39690 | -3.48683 | 3620 ft | 156 kts | 322° |
| 2026-05-06 13:16 | 40.40549 | -3.49553 | 3426 ft | 156 kts | 322° |
| 2026-05-06 13:16 | 40.41403 | -3.50411 | 3226 ft | 155 kts | 322° |
| 2026-05-06 13:17 | 40.42260 | -3.51264 | 3004 ft | 156 kts | 322° |
| 2026-05-06 13:17 | 40.43116 | -3.52140 | 2755 ft | 155 kts | 322° |
| 2026-05-06 13:17 | 40.43931 | -3.52981 | 2554 ft | 156 kts | 321° |
| 2026-05-06 13:17 | 40.44786 | -3.53849 | 2363 ft | 156 kts | 321° |
| 2026-05-06 13:18 | 40.45651 | -3.54713 | 2160 ft | 156 kts | 321° |
| 2026-05-06 13:18 | 40.46508 | -3.55587 | 1977 ft | 155 kts | 319° |
| 2026-05-06 13:18 | 40.47270 | -3.56376 | 1987 ft | 120 kts | 324° |
| 2026-05-06 13:18 | 40.47838 | -3.56940 | 1997 ft | 87 kts | 321° |
| 2026-05-06 13:19 | 40.48131 | -3.57258 | 2003 ft | 26 kts | 307° |
| 2026-05-06 13:19 | 40.48161 | -3.57385 | 2004 ft | 10 kts | 296° |
| 2026-05-06 13:19 | 40.48174 | -3.57421 | 2003 ft | 3 kts | 294° |
| 2026-05-06 13:19 | 40.48184 | -3.57450 | 2002 ft | 3 kts | 293° |
| 2026-05-06 13:20 | 40.48192 | -3.57476 | 2001 ft | 3 kts | 293° |
| 2026-05-06 13:20 | 40.48200 | -3.57502 | 2001 ft | 3 kts | 291° |
| 2026-05-06 13:20 | 40.48209 | -3.57532 | 1999 ft | 4 kts | 291° |
| 2026-05-06 13:20 | 40.48224 | -3.57577 | 1997 ft | 7 kts | 297° |
| 2026-05-06 13:21 | 40.48264 | -3.57642 | 1997 ft | 11 kts | 319° |
| 2026-05-06 13:21 | 40.48332 | -3.57709 | 1995 ft | 14 kts | 324° |
| 2026-05-06 13:21 | 40.48418 | -3.57791 | 1993 ft | 16 kts | 324° |
| 2026-05-06 13:21 | 40.48519 | -3.57864 | 1995 ft | 16 kts | 333° |
| 2026-05-06 13:22 | 40.48606 | -3.57918 | 1999 ft | 13 kts | 342° |
| 2026-05-06 13:22 | 40.48703 | -3.57925 | 1999 ft | 14 kts | 360° |
| 2026-05-06 13:22 | 40.48806 | -3.57926 | 1999 ft | 15 kts | 0° |
| 2026-05-06 13:22 | 40.48916 | -3.57926 | 1998 ft | 16 kts | 359° |
| 2026-05-06 13:23 | 40.49033 | -3.57928 | 1998 ft | 17 kts | 360° |
| 2026-05-06 13:23 | 40.49152 | -3.57929 | 1998 ft | 17 kts | 359° |
| 2026-05-06 13:23 | 40.49260 | -3.57930 | 1998 ft | 16 kts | 1° |
| 2026-05-06 13:23 | 40.49368 | -3.57930 | 1999 ft | 14 kts | 359° |
| 2026-05-06 13:24 | 40.49432 | -3.57930 | 1999 ft | 13 kts | 360° |
| 2026-05-06 13:24 | 40.49541 | -3.57931 | 1999 ft | 8 kts | 359° |
| 2026-05-06 13:24 | 40.49595 | -3.57931 | 1999 ft | 7 kts | 360° |
| 2026-05-06 13:24 | 40.49641 | -3.57948 | 1999 ft | 7 kts | 316° |
| 2026-05-06 13:25 | 40.49651 | -3.57996 | 2001 ft | 4 kts | 268° |
| 2026-05-06 13:25 | 40.49651 | -3.58027 | 2002 ft | 3 kts | 268° |
| 2026-05-06 13:25 | 40.49650 | -3.58080 | 2004 ft | 9 kts | 268° |
| 2026-05-06 13:25 | 40.49649 | -3.58191 | 2008 ft | 16 kts | 269° |
| 2026-05-06 13:26 | 40.49648 | -3.58345 | 2013 ft | 16 kts | 270° |
| 2026-05-06 13:26 | 40.49648 | -3.58478 | 2018 ft | 13 kts | 270° |
| 2026-05-06 13:26 | 40.49647 | -3.58588 | 2027 ft | 11 kts | 270° |
| 2026-05-06 13:26 | 40.49647 | -3.58687 | 2022 ft | 11 kts | 270° |
| 2026-05-06 13:27 | 40.49647 | -3.58785 | 2022 ft | 8 kts | 270° |
| 2026-05-06 13:27 | 40.49647 | -3.58848 | 2022 ft | 5 kts | 270° |
| 2026-05-06 13:27 | 40.49631 | -3.58883 | 2033 ft | 5 kts | 214° |
| 2026-05-06 13:27 | 40.49610 | -3.58888 | 2031 ft | 5 kts | 190° |
| 2026-05-06 13:28 | 40.49602 | -3.58919 | 2032 ft | 4 kts | 271° |
| 2026-05-06 13:28 | 40.49602 | -3.58956 | 2027 ft | 3 kts | 269° |
| 2026-05-06 13:28 | 40.49602 | -3.58972 | 2030 ft | 0 kts | 270° |